.
WxDataArchive / Data Records for 2012-02-16
2012-02-15 February 2012 2012-02-17

Data Records for Thursday, 16 February 2012

Time	Temp	Chill	HIndex	Humid	Dewpt	 Wind 	HiWind	WindDir	Rain 	Barom 
-----	----	-----	------	-----	-----	------	------	-------	-----	----- 
00:00	39.2	39.2	39.2	94	37.6	0	1	112	0.00	30.033 
00:05	39.2	39.2	39.2	94	37.6	0	1	112	0.00	30.033 
00:10	39.2	39.2	39.2	94	37.6	0	1	112	0.00	30.033 
00:15	39.2	39.2	39.2	94	37.6	0	2	135	0.01	30.027 
00:20	39.2	39.2	39.2	94	37.6	0	1	135	0.00	30.027 
00:25	39.2	39.2	39.2	94	37.6	0	1	135	0.00	30.027 
00:30	39.2	39.2	39.2	94	37.6	0	1	135	0.00	30.025 
00:35	39.2	39.2	39.2	94	37.6	0	0	---	0.00	30.025 
00:40	39.1	39.1	39.1	94	37.5	0	1	135	0.00	30.025 
00:45	39.1	39.1	39.1	94	37.5	0	1	135	0.01	30.023 
00:50	39.2	39.2	39.2	94	37.6	0	3	135	0.00	30.023 
00:55	39.2	39.2	39.2	94	37.6	0	1	135	0.00	30.023 
01:00	39.2	39.2	39.2	94	37.6	0	1	135	0.00	30.016 
01:05	39.3	39.3	39.3	94	37.7	0	2	135	0.00	30.016 
01:10	39.3	39.3	39.3	94	37.7	0	2	135	0.00	30.016 
01:15	39.3	39.3	39.3	94	37.7	0	1	135	0.00	30.015 
01:20	39.5	39.5	39.5	94	37.9	1	2	135	0.00	30.015 
01:25	39.5	39.5	39.5	94	37.9	0	1	135	0.00	30.015 
01:30	39.3	39.3	39.3	94	37.7	0	1	135	0.00	30.009 
01:35	39.3	39.3	39.3	94	37.7	0	2	135	0.00	30.009 
01:40	39.5	39.5	39.5	94	37.9	0	1	135	0.00	30.009 
01:45	39.5	39.5	39.5	95	38.2	0	1	135	0.00	30.006 
01:50	39.5	39.5	39.5	94	37.9	0	0	---	0.00	30.006 
01:55	39.3	39.3	39.3	94	37.7	0	0	---	0.00	30.006 
02:00	39.2	39.2	39.2	94	37.6	0	0	---	0.00	30.005 
02:05	39.2	39.2	39.2	94	37.6	0	0	---	0.00	30.005 
02:10	39.1	39.1	39.1	94	37.5	0	0	---	0.00	30.005 
02:15	39.1	39.1	39.1	95	37.8	0	0	---	0.00	30.005 
02:20	38.9	38.9	38.9	95	37.6	0	0	---	0.00	30.005 
02:25	38.9	38.9	38.9	95	37.6	0	0	---	0.00	30.005 
02:30	38.8	38.8	38.8	94	37.2	0	0	---	0.00	30.004 
02:35	38.8	38.8	38.8	95	37.5	0	0	---	0.00	30.004 
02:40	38.9	38.9	38.9	95	37.6	0	0	---	0.00	30.004 
02:45	38.9	38.9	38.9	95	37.6	0	0	---	0.00	29.993 
02:50	39.1	39.1	39.1	95	37.8	0	0	---	0.00	29.993 
02:55	39.1	39.1	39.1	95	37.8	0	0	---	0.00	29.993 
03:00	39.1	39.1	39.1	95	37.8	0	0	---	0.00	29.991 
03:05	38.9	38.9	38.9	95	37.6	0	0	---	0.00	29.991 
03:10	38.9	38.9	38.9	95	37.6	0	0	---	0.00	29.991 
03:15	38.9	38.9	38.9	95	37.6	0	0	---	0.00	29.978 
03:20	39.1	39.1	39.1	95	37.8	0	0	---	0.00	29.978 
03:25	39.1	39.1	39.1	95	37.8	0	0	---	0.00	29.978 
03:30	39.1	39.1	39.1	95	37.8	0	0	---	0.00	29.974 
03:35	39.1	39.1	39.1	95	37.8	0	0	---	0.01	29.974 
03:40	38.9	38.9	38.9	95	37.6	0	0	---	0.00	29.974 
03:45	38.9	38.9	38.9	95	37.6	0	0	---	0.01	29.969 
03:50	38.9	38.9	38.9	95	37.6	0	0	---	0.00	29.969 
03:55	38.8	38.8	38.8	95	37.5	0	0	---	0.00	29.969 
04:00	38.8	38.8	38.8	95	37.5	0	0	---	0.00	29.963 
04:05	38.6	38.6	38.6	95	37.3	0	0	---	0.00	29.963 
04:10	38.6	38.6	38.6	95	37.3	0	0	---	0.01	29.963 
04:15	38.6	38.6	38.6	95	37.3	0	0	---	0.00	29.963 
04:20	38.6	38.6	38.6	95	37.3	0	0	---	0.00	29.963 
04:25	38.8	38.8	38.8	95	37.5	0	0	---	0.00	29.963 
04:30	38.8	38.8	38.8	95	37.5	0	0	---	0.00	29.962 
04:35	38.8	38.8	38.8	95	37.5	0	0	---	0.00	29.962 
04:40	38.8	38.8	38.8	95	37.5	0	0	---	0.00	29.962 
04:45	38.8	38.8	38.8	95	37.5	0	0	---	0.00	29.963 
04:50	38.8	38.8	38.8	95	37.5	0	0	---	0.00	29.963 
04:55	38.8	38.8	38.8	95	37.5	0	0	---	0.00	29.963 
05:00	38.8	38.8	38.8	95	37.5	0	0	---	0.00	29.962 
05:05	38.8	38.8	38.8	95	37.5	0	0	---	0.00	29.962 
05:10	38.8	38.8	38.8	95	37.5	0	0	---	0.00	29.962 
05:15	38.6	38.6	38.6	95	37.3	0	0	---	0.00	29.961 
05:20	38.6	38.6	38.6	96	37.6	0	0	---	0.01	29.961 
05:25	38.8	38.8	38.8	96	37.8	0	0	---	0.00	29.961 
05:30	38.8	38.8	38.8	96	37.8	0	0	---	0.00	29.955 
05:35	38.8	38.8	38.8	96	37.8	0	0	---	0.01	29.955 
05:40	38.8	38.8	38.8	96	37.8	0	0	---	0.00	29.955 
05:45	38.6	38.6	38.6	96	37.6	0	0	---	0.01	29.957 
05:50	38.5	38.5	38.5	96	37.5	0	0	---	0.00	29.957 
05:55	38.5	38.5	38.5	96	37.5	0	0	---	0.00	29.957 
06:00	38.3	38.3	38.3	96	37.3	0	0	---	0.00	29.958 
06:05	38.3	38.3	38.3	96	37.3	0	0	---	0.00	29.958 
06:10	38.3	38.3	38.3	96	37.3	0	0	---	0.00	29.958 
06:15	38.2	38.2	38.2	96	37.2	0	0	---	0.00	29.954 
06:20	38.2	38.2	38.2	96	37.2	0	0	---	0.01	29.954 
06:25	38.0	38.0	38.0	96	37.0	0	0	---	0.00	29.954 
06:30	38.0	38.0	38.0	96	37.0	0	0	---	0.00	29.948 
06:35	38.2	38.2	38.2	96	37.2	0	0	---	0.00	29.948 
06:40	38.3	38.3	38.3	96	37.3	0	0	---	0.00	29.948 
06:45	38.5	38.5	38.5	96	37.5	0	0	---	0.00	29.945 
06:50	38.6	38.6	38.6	96	37.6	0	0	---	0.00	29.945 
06:55	38.5	38.5	38.5	96	37.5	0	0	---	0.00	29.945 
07:00	38.5	38.5	38.5	96	37.5	0	0	---	0.00	29.946 
07:05	38.3	38.3	38.3	96	37.3	0	0	---	0.00	29.946 
07:10	38.3	38.3	38.3	96	37.3	0	0	---	0.00	29.946 
07:15	38.3	38.3	38.3	96	37.3	0	0	---	0.00	29.948 
07:20	38.3	38.3	38.3	96	37.3	0	0	---	0.00	29.948 
07:25	38.3	38.3	38.3	96	37.3	0	0	---	0.00	29.948 
07:30	38.3	38.3	38.3	96	37.3	0	0	---	0.00	29.952 
07:35	38.5	38.5	38.5	96	37.5	0	0	---	0.00	29.952 
07:40	38.5	38.5	38.5	96	37.5	0	0	---	0.00	29.952 
07:45	38.5	38.5	38.5	96	37.5	0	0	---	0.00	29.949 
07:50	38.5	38.5	38.5	96	37.5	0	0	---	0.00	29.949 
07:55	38.8	38.8	38.8	96	37.8	0	0	---	0.00	29.949 
08:00	38.9	38.9	38.9	96	37.9	0	1	135	0.00	29.950 
08:05	39.1	39.1	39.1	96	38.1	0	1	135	0.00	29.950 
08:10	39.3	39.3	39.3	96	38.3	0	1	135	0.00	29.950 
08:15	39.5	39.5	39.5	96	38.5	0	1	135	0.00	29.949 
08:20	39.6	39.6	39.6	96	38.6	0	1	135	0.00	29.949 
08:25	39.8	39.8	39.8	96	38.8	0	2	225	0.00	29.949 
08:30	39.9	39.9	39.9	96	38.9	1	3	225	0.00	29.958 
08:35	40.1	40.1	40.1	96	39.1	0	2	225	0.00	29.958 
08:40	40.2	40.2	40.2	96	39.2	0	1	225	0.00	29.958 
08:45	40.3	40.3	40.3	96	39.3	1	2	225	0.00	29.961 
08:50	40.5	40.5	40.5	96	39.5	0	2	225	0.00	29.961 
08:55	40.5	40.5	40.5	96	39.5	0	2	225	0.00	29.961 
09:00	40.5	40.5	40.5	96	39.5	0	2	225	0.00	29.962 
09:05	40.6	40.6	40.6	96	39.5	1	3	248	0.00	29.962 
09:10	40.6	40.6	40.6	96	39.5	0	2	248	0.00	29.962 
09:15	40.8	40.8	40.8	96	39.7	1	3	248	0.00	29.962 
09:20	40.8	40.8	40.8	96	39.7	0	2	248	0.00	29.962 
09:25	40.9	40.9	40.9	96	39.8	1	3	248	0.00	29.962 
09:30	40.9	40.9	40.9	96	39.8	1	4	248	0.00	29.963 
09:35	41.1	41.1	41.1	96	40.0	1	2	248	0.00	29.963 
09:40	41.1	41.1	41.1	96	40.0	0	3	248	0.00	29.963 
09:45	41.1	41.1	41.1	96	40.0	0	2	248	0.00	29.964 
09:50	41.2	41.2	41.2	96	40.1	1	2	248	0.00	29.964 
09:55	41.3	41.3	41.3	96	40.2	0	1	248	0.00	29.964 
10:00	41.5	41.5	41.5	96	40.4	1	3	248	0.00	29.958 
10:05	41.5	41.5	41.5	96	40.4	1	2	248	0.00	29.958 
10:10	41.5	41.5	41.5	96	40.4	2	3	248	0.00	29.958 
10:15	41.5	41.5	41.5	96	40.4	2	4	248	0.00	29.959 
10:20	41.5	41.5	41.5	96	40.4	2	4	248	0.00	29.959 
10:25	41.3	41.3	41.3	96	40.2	1	3	248	0.00	29.959 
10:30	41.3	41.3	41.3	96	40.2	2	3	248	0.00	29.971 
10:35	41.3	41.3	41.3	96	40.2	1	3	248	0.00	29.971 
10:40	41.2	41.2	41.2	96	40.1	1	3	248	0.00	29.971 
10:45	41.1	41.1	41.1	96	40.0	1	2	248	0.00	29.961 
10:50	41.1	41.1	41.1	96	40.0	1	3	248	0.00	29.961 
10:55	41.1	41.1	41.1	96	40.0	1	2	248	0.00	29.961 
11:00	41.2	41.2	41.2	96	40.1	1	2	248	0.00	29.965 
11:05	41.3	41.3	41.3	96	40.2	1	3	248	0.00	29.965 
11:10	41.2	41.2	41.2	96	40.1	1	3	248	0.00	29.965 
11:15	41.5	41.5	41.5	96	40.4	1	3	248	0.00	29.984 
11:20	41.8	41.8	41.8	96	40.7	2	4	270	0.00	29.984 
11:25	41.8	41.8	41.8	96	40.7	2	4	270	0.00	29.984 
11:30	41.5	41.5	41.5	96	40.4	2	4	315	0.00	29.991 
11:35	41.5	41.5	41.5	96	40.4	2	3	315	0.00	29.991 
11:40	41.8	41.8	41.8	96	40.7	2	4	225	0.00	29.991 
11:45	42.1	42.1	42.1	96	41.0	2	4	292	0.00	29.992 
11:50	42.5	42.5	42.5	96	41.4	2	3	338	0.00	29.992 
11:55	42.3	42.3	42.3	96	41.2	3	5	338	0.00	29.992 
12:00	42.1	42.1	42.1	96	41.0	3	6	315	0.00	29.997 
12:05	42.1	42.1	42.1	96	41.0	3	5	270	0.00	29.997 
12:10	42.1	42.1	42.1	96	41.0	3	5	270	0.00	29.997 
12:15	42.1	42.1	42.1	95	40.8	3	6	270	0.00	29.993 
12:20	42.1	42.1	42.1	95	40.8	2	5	248	0.00	29.993 
12:25	42.1	42.1	42.1	94	40.5	2	4	248	0.00	29.993 
12:30	41.9	41.9	41.9	94	40.3	3	5	248	0.00	29.993 
12:35	42.1	42.1	42.1	94	40.5	2	4	270	0.00	29.993 
12:40	41.9	41.9	41.9	93	40.0	2	5	270	0.00	29.993 
12:45	41.8	41.8	41.8	92	39.6	3	5	270	0.00	29.995 
12:50	41.5	41.5	41.5	92	39.4	3	7	270	0.00	29.995 
12:55	41.3	41.3	41.3	92	39.2	3	5	270	0.00	29.995 
13:00	41.2	41.2	41.2	92	39.1	2	4	270	0.00	29.996 
13:05	41.2	41.2	41.2	91	38.8	2	6	270	0.00	29.996 
13:10	41.3	41.3	41.3	91	38.9	2	4	270	0.00	29.996 
13:15	41.2	41.2	41.2	91	38.8	2	5	225	0.00	29.992 
13:20	41.2	41.2	41.2	91	38.8	2	4	270	0.00	29.992 
13:25	41.1	41.1	41.1	90	38.4	3	6	270	0.00	29.992 
13:30	41.1	41.1	41.1	90	38.4	3	5	270	0.00	29.995 
13:35	41.1	41.1	41.1	90	38.4	3	5	270	0.00	29.995 
13:40	41.1	41.1	41.1	89	38.1	3	7	270	0.00	29.995 
13:45	40.9	40.9	40.9	89	37.9	3	6	270	0.00	30.001 
13:50	40.8	40.8	40.8	88	37.5	3	6	270	0.00	30.001 
13:55	40.6	40.6	40.6	88	37.3	3	6	270	0.00	30.001 
14:00	40.6	40.6	40.6	86	36.7	3	6	292	0.00	30.000 
14:05	40.6	40.6	40.6	86	36.7	3	6	270	0.00	30.000 
14:10	40.6	38.0	40.6	84	36.2	4	7	270	0.00	30.000 
14:15	40.8	40.8	40.8	83	36.0	2	6	270	0.00	30.008 
14:20	40.8	40.8	40.8	82	35.7	3	5	338	0.00	30.008 
14:25	41.1	41.1	41.1	81	35.7	2	6	248	0.00	30.008 
14:30	41.2	41.2	41.2	81	35.8	2	3	270	0.00	30.007 
14:35	41.5	41.5	41.5	80	35.8	3	5	270	0.00	30.007 
14:40	41.5	41.5	41.5	79	35.5	3	4	270	0.00	30.007 
14:45	41.6	41.6	41.6	79	35.6	2	4	270	0.00	30.008 
14:50	41.8	41.8	41.8	79	35.8	2	5	315	0.00	30.008 
14:55	41.8	41.8	41.8	79	35.8	2	5	270	0.00	30.008 
15:00	41.9	41.9	41.9	78	35.5	2	5	270	0.00	30.014 
15:05	42.1	42.1	42.1	77	35.4	2	4	292	0.00	30.014 
15:10	42.1	42.1	42.1	77	35.4	3	6	270	0.00	30.014 
15:15	42.2	42.2	42.2	76	35.2	2	4	292	0.00	30.017 
15:20	42.3	40.0	42.3	74	34.6	4	6	292	0.00	30.017 
15:25	42.6	42.6	42.6	75	35.2	2	4	292	0.00	30.017 
15:30	43.2	43.2	43.2	75	35.8	2	4	248	0.00	30.007 
15:35	43.6	43.6	43.6	73	35.5	2	5	270	0.00	30.007 
15:40	43.8	43.8	43.8	72	35.4	2	5	248	0.00	30.007 
15:45	43.9	43.9	43.9	71	35.1	3	7	270	0.00	30.018 
15:50	43.6	43.6	43.6	70	34.5	3	5	270	0.00	30.018 
15:55	43.3	43.3	43.3	69	33.8	3	5	270	0.00	30.018 
16:00	43.2	43.2	43.2	69	33.7	3	6	248	0.00	30.024 
16:05	43.2	43.2	43.2	70	34.1	2	4	338	0.00	30.024 
16:10	43.3	43.3	43.3	70	34.2	2	5	270	0.00	30.024 
16:15	43.3	43.3	43.3	69	33.8	2	4	270	0.00	30.023 
16:20	43.5	43.5	43.5	69	34.0	2	4	270	0.00	30.023 
16:25	43.5	43.5	43.5	69	34.0	2	4	292	0.00	30.023 
16:30	43.6	43.6	43.6	69	34.1	2	4	292	0.00	30.027 
16:35	43.5	43.5	43.5	69	34.0	2	4	270	0.00	30.027 
16:40	43.3	43.3	43.3	69	33.8	2	4	270	0.00	30.027 
16:45	43.3	43.3	43.3	69	33.8	2	5	292	0.00	30.029 
16:50	43.3	43.3	43.3	69	33.8	2	5	315	0.00	30.029 
16:55	43.2	43.2	43.2	69	33.7	2	4	270	0.00	30.029 
17:00	43.2	43.2	43.2	69	33.7	2	5	292	0.00	30.037 
17:05	43.2	43.2	43.2	69	33.7	2	4	270	0.00	30.037 
17:10	43.2	43.2	43.2	68	33.4	2	4	270	0.00	30.037 
17:15	43.2	43.2	43.2	68	33.4	3	6	248	0.00	30.040 
17:20	43.2	43.2	43.2	66	32.6	3	6	270	0.00	30.040 
17:25	43.1	43.1	43.1	66	32.5	2	4	270	0.00	30.040 
17:30	42.9	42.9	42.9	66	32.3	2	4	270	0.00	30.055 
17:35	42.8	42.8	42.8	66	32.2	2	4	292	0.00	30.055 
17:40	42.5	42.5	42.5	65	31.6	3	7	315	0.00	30.055 
17:45	42.3	42.3	42.3	65	31.4	3	6	292	0.00	30.062 
17:50	42.1	42.1	42.1	66	31.6	2	7	292	0.00	30.062 
17:55	41.9	41.9	41.9	66	31.4	3	5	338	0.00	30.062 
18:00	41.6	41.6	41.6	67	31.5	2	4	270	0.00	30.074 
18:05	41.5	41.5	41.5	68	31.7	2	6	292	0.00	30.074 
18:10	41.2	41.2	41.2	69	31.8	1	5	292	0.00	30.074 
18:15	41.1	41.1	41.1	69	31.7	2	5	270	0.00	30.085 
18:20	40.8	40.8	40.8	69	31.4	1	4	338	0.00	30.085 
18:25	40.6	40.6	40.6	70	31.6	0	2	315	0.00	30.085 
18:30	40.5	40.5	40.5	71	31.8	0	2	315	0.00	30.086 
18:35	40.3	40.3	40.3	70	31.3	1	3	315	0.00	30.086 
18:40	40.2	40.2	40.2	71	31.6	0	2	292	0.00	30.086 
18:45	39.9	39.9	39.9	71	31.3	1	3	270	0.00	30.089 
18:50	39.8	39.8	39.8	72	31.5	0	2	270	0.00	30.089 
18:55	39.5	39.5	39.5	72	31.2	0	2	270	0.00	30.089 
19:00	39.3	39.3	39.3	73	31.4	0	2	270	0.00	30.090 
19:05	39.1	39.1	39.1	73	31.2	0	1	270	0.00	30.090 
19:10	38.9	38.9	38.9	73	31.0	0	1	270	0.00	30.090 
19:15	38.6	38.6	38.6	74	31.0	0	1	270	0.00	30.100 
19:20	38.5	38.5	38.5	74	30.9	0	1	270	0.00	30.100 
19:25	38.3	38.3	38.3	75	31.1	0	0	---	0.00	30.100 
19:30	38.0	38.0	38.0	75	30.8	0	0	---	0.00	30.101 
19:35	37.8	37.8	37.8	76	30.9	0	0	---	0.00	30.101 
19:40	37.6	37.6	37.6	77	31.1	0	0	---	0.00	30.101 
19:45	37.3	37.3	37.3	77	30.8	0	0	---	0.00	30.099 
19:50	36.9	36.9	36.9	77	30.4	0	0	---	0.00	30.099 
19:55	36.5	36.5	36.5	78	30.3	0	0	---	0.00	30.099 
20:00	36.2	36.2	36.2	78	30.0	0	0	---	0.00	30.098 
20:05	35.8	35.8	35.8	79	29.9	0	0	---	0.00	30.098 
20:10	35.3	35.3	35.3	79	29.4	0	0	---	0.00	30.098 
20:15	35.0	35.0	35.0	79	29.2	0	0	---	0.00	30.099 
20:20	34.6	34.6	34.6	79	28.8	0	0	---	0.00	30.099 
20:25	34.1	34.1	34.1	80	28.6	0	0	---	0.00	30.099 
20:30	33.8	33.8	33.8	81	28.6	0	0	---	0.00	30.105 
20:35	33.5	33.5	33.5	81	28.3	0	0	---	0.00	30.105 
20:40	33.1	33.1	33.1	82	28.2	0	0	---	0.00	30.105 
20:45	32.8	32.8	32.8	82	27.9	0	0	---	0.00	30.107 
20:50	32.5	32.5	32.5	82	27.6	0	0	---	0.00	30.107 
20:55	32.2	32.2	32.2	83	27.6	0	0	---	0.00	30.107 
21:00	32.1	32.1	32.1	83	27.5	0	0	---	0.00	30.110 
21:05	31.8	31.8	31.8	84	27.5	0	0	---	0.00	30.110 
21:10	31.5	31.5	31.5	84	27.2	0	0	---	0.00	30.110 
21:15	31.3	31.3	31.3	84	27.0	0	0	---	0.00	30.111 
21:20	31.2	31.2	31.2	85	27.2	0	0	---	0.00	30.111 
21:25	31.3	31.3	31.3	86	27.6	0	0	---	0.00	30.111 
21:30	31.2	31.2	31.2	86	27.5	0	0	---	0.00	30.112 
21:35	31.2	31.2	31.2	86	27.5	0	0	---	0.00	30.112 
21:40	31.2	31.2	31.2	87	27.8	0	0	---	0.00	30.112 
21:45	31.3	31.3	31.3	88	28.2	0	0	---	0.00	30.111 
21:50	31.3	31.3	31.3	88	28.2	0	0	---	0.00	30.111 
21:55	31.3	31.3	31.3	88	28.2	0	0	---	0.00	30.111 
22:00	31.5	31.5	31.5	88	28.4	0	0	---	0.00	30.119 
22:05	31.3	31.3	31.3	88	28.2	0	0	---	0.00	30.119 
22:10	31.3	31.3	31.3	88	28.2	0	0	---	0.00	30.119 
22:15	31.2	31.2	31.2	89	28.3	0	0	---	0.00	30.114 
22:20	31.0	31.0	31.0	89	28.1	0	0	---	0.00	30.114 
22:25	30.9	30.9	30.9	89	28.0	0	0	---	0.00	30.114 
22:30	30.7	30.7	30.7	89	27.8	0	0	---	0.00	30.125 
22:35	30.6	30.6	30.6	89	27.8	0	0	---	0.00	30.125 
22:40	30.4	30.4	30.4	89	27.6	0	0	---	0.00	30.125 
22:45	30.3	30.3	30.3	89	27.5	0	0	---	0.00	30.128 
22:50	30.1	30.1	30.1	89	27.3	0	0	---	0.00	30.128 
22:55	30.0	30.0	30.0	89	27.2	0	0	---	0.00	30.128 
23:00	29.8	29.8	29.8	89	27.0	0	0	---	0.00	30.131 
23:05	29.7	29.7	29.7	89	26.9	0	0	---	0.00	30.131 
23:10	29.5	29.5	29.5	89	26.7	0	0	---	0.00	30.131 
23:15	29.5	29.5	29.5	90	26.9	0	0	---	0.00	30.132 
23:20	29.4	29.4	29.4	90	26.8	0	0	---	0.00	30.132 
23:25	29.4	29.4	29.4	90	26.8	0	0	---	0.00	30.132 
23:30	29.3	29.3	29.3	90	26.7	0	0	---	0.00	30.135 
23:35	29.1	29.1	29.1	90	26.5	0	0	---	0.00	30.135 
23:40	29.1	29.1	29.1	90	26.5	0	0	---	0.00	30.135 
23:45	29.0	29.0	29.0	90	26.4	0	0	---	0.00	30.132 
23:50	29.0	29.0	29.0	90	26.4	0	0	---	0.00	30.132 
23:55	29.1	29.1	29.1	91	26.8	0	0	---	0.00	30.132 

CoCoRaHS
IN-AL-39
A2 Web Hosting
Creative Commons License
GoDaddy
search engine by freefind advanced

loaded 2018-11-13 02:20:18 • last modified 2010-11-18 10:43:29
Privacy PolicyDisclaimer
• wx.awcolley.com is powered by PmWiki v.2002016 •
• all content (unless otherwise noted) © 2018 A W Colley